createdAt,value
2023-03-04T00:01:16.431Z,3.15
2023-03-04T00:03:42.981Z,3.15
2023-03-04T00:06:09.647Z,3.20
2023-03-04T00:08:36.265Z,3.24
2023-03-04T00:11:02.787Z,3.26
2023-03-04T00:13:29.344Z,3.32
2023-03-04T00:15:56.022Z,3.35
2023-03-04T00:18:22.692Z,3.38
2023-03-04T00:20:50.680Z,3.39
2023-03-04T00:23:17.553Z,3.42
2023-03-04T00:25:44.122Z,3.43
2023-03-04T00:28:10.929Z,3.44
2023-03-04T00:30:37.482Z,3.48
2023-03-04T00:33:04.180Z,3.53
2023-03-04T00:35:30.745Z,3.60
2023-03-04T00:37:57.406Z,3.65
2023-03-04T00:40:24.000Z,3.66
2023-03-04T00:42:50.717Z,3.71
2023-03-04T00:45:17.289Z,3.73
2023-03-04T00:47:45.122Z,3.75
2023-03-04T00:50:12.140Z,3.77
2023-03-04T00:52:38.691Z,3.82
2023-03-04T00:55:05.959Z,3.87
2023-03-04T00:57:32.481Z,3.89
2023-03-04T00:59:58.991Z,3.92
2023-03-04T01:02:25.796Z,3.94
2023-03-04T01:04:52.622Z,3.99
2023-03-04T01:07:19.245Z,3.99
2023-03-04T01:09:45.771Z,4.03
2023-03-04T01:12:12.316Z,4.07
2023-03-04T01:14:38.867Z,4.06
2023-03-04T01:17:05.402Z,4.11
2023-03-04T01:19:31.994Z,4.08
2023-03-04T01:21:58.555Z,4.16
2023-03-04T01:24:25.056Z,4.20
2023-03-04T01:26:51.579Z,4.25
2023-03-04T01:29:18.278Z,4.26
2023-03-04T01:31:44.854Z,4.28
2023-03-04T01:34:11.459Z,4.32
2023-03-04T01:36:38.043Z,4.35
2023-03-04T01:39:05.110Z,4.39
2023-03-04T01:41:31.931Z,4.42
2023-03-04T01:44:03.401Z,4.44
2023-03-04T01:46:31.161Z,4.47
2023-03-04T01:48:57.965Z,4.51
2023-03-04T01:51:24.621Z,4.54
2023-03-04T01:53:53.475Z,4.57
2023-03-04T01:56:30.710Z,4.55
2023-03-04T01:59:17.477Z,4.60
2023-03-04T02:01:46.829Z,4.64
2023-03-04T02:04:14.438Z,4.61
2023-03-04T02:06:41.855Z,4.66
2023-03-04T02:09:08.947Z,4.69
2023-03-04T02:11:36.337Z,4.72
2023-03-04T02:14:03.158Z,4.72
2023-03-04T02:16:29.758Z,4.79
2023-03-04T02:18:56.288Z,4.82
2023-03-04T02:21:29.238Z,4.73
2023-03-04T02:24:03.154Z,4.78
2023-03-04T02:26:31.347Z,4.81
2023-03-04T02:28:59.462Z,4.84
2023-03-04T02:31:55.589Z,4.86
2023-03-04T02:34:26.070Z,4.88
2023-03-04T02:36:53.585Z,4.87
2023-03-04T02:39:20.025Z,4.89
2023-03-04T02:41:51.810Z,4.93
2023-03-04T02:44:24.107Z,4.91
2023-03-04T02:46:51.784Z,4.93
2023-03-04T02:49:18.584Z,4.98
2023-03-04T02:51:45.397Z,4.87
2023-03-04T02:54:16.823Z,4.92
2023-03-04T02:56:51.350Z,4.98
2023-03-04T02:59:18.620Z,4.99
2023-03-04T03:01:45.679Z,5.04
2023-03-04T03:04:12.981Z,5.08
2023-03-04T03:06:40.152Z,5.10
2023-03-04T03:09:07.524Z,5.13
2023-03-04T03:11:34.429Z,5.13
2023-03-04T03:14:00.974Z,5.18
2023-03-04T03:16:27.889Z,5.23
2023-03-04T03:18:54.489Z,5.25
2023-03-04T03:21:21.133Z,5.27
2023-03-04T03:23:47.701Z,5.23
2023-03-04T03:26:14.507Z,5.30
2023-03-04T03:28:41.034Z,5.29
2023-03-04T03:31:07.855Z,5.30
2023-03-04T03:33:34.597Z,5.35
2023-03-04T03:36:01.418Z,5.34
2023-03-04T03:38:28.262Z,5.35
2023-03-04T03:40:54.801Z,5.36
2023-03-04T03:43:21.323Z,5.40
2023-03-04T03:45:47.908Z,5.40
2023-03-04T03:48:14.403Z,5.41
2023-03-04T03:50:40.912Z,5.42
2023-03-04T03:53:07.472Z,5.43
2023-03-04T03:55:33.957Z,5.43
2023-03-04T03:58:00.559Z,5.45
2023-03-04T04:00:27.174Z,5.48
2023-03-04T04:02:55.239Z,5.46
2023-03-04T04:05:21.777Z,5.50
2023-03-04T04:07:48.323Z,5.54
2023-03-04T04:10:14.807Z,5.53
2023-03-04T04:12:41.385Z,5.58
2023-03-04T04:15:10.200Z,5.58
2023-03-04T04:17:36.734Z,5.57
2023-03-04T04:20:03.615Z,5.59
2023-03-04T04:22:30.071Z,5.57
2023-03-04T04:24:56.564Z,5.57
2023-03-04T04:27:23.189Z,5.53
2023-03-04T04:29:49.772Z,5.57
2023-03-04T04:32:16.364Z,5.59
2023-03-04T04:34:42.949Z,5.61
2023-03-04T04:37:09.522Z,5.58
2023-03-04T04:39:37.095Z,5.58
2023-03-04T04:42:03.794Z,5.61
2023-03-04T04:44:30.363Z,5.62
2023-03-04T04:46:56.982Z,5.63
2023-03-04T04:49:23.550Z,5.60
2023-03-04T04:51:50.174Z,5.62
2023-03-04T04:54:17.462Z,5.61
2023-03-04T04:56:44.053Z,5.61
2023-03-04T04:59:10.693Z,5.65
2023-03-04T05:01:37.233Z,5.64
2023-03-04T05:04:04.058Z,5.61
2023-03-04T05:06:30.642Z,5.64
2023-03-04T05:08:57.200Z,5.61
2023-03-04T05:11:23.801Z,5.63
2023-03-04T05:13:50.508Z,5.63
2023-03-04T05:16:17.904Z,5.67
2023-03-04T05:18:44.531Z,5.66
2023-03-04T05:21:11.193Z,5.66
2023-03-04T05:23:39.850Z,5.68
2023-03-04T05:26:08.118Z,5.67
2023-03-04T05:28:35.019Z,5.66
2023-03-04T05:31:02.013Z,5.68
2023-03-04T05:33:28.924Z,5.68
2023-03-04T05:35:56.456Z,5.68
2023-03-04T05:38:23.411Z,5.64
2023-03-04T05:40:50.417Z,5.66
2023-03-04T05:43:17.390Z,5.67
2023-03-04T05:45:43.938Z,5.67
2023-03-04T05:48:10.554Z,5.65
2023-03-04T05:50:37.312Z,5.69
2023-03-04T05:53:03.963Z,5.67
2023-03-04T05:55:30.553Z,5.69
2023-03-04T05:57:57.670Z,5.68
2023-03-04T06:00:25.135Z,5.69
2023-03-04T06:02:52.080Z,5.67
2023-03-04T06:05:19.583Z,5.71
2023-03-04T06:07:49.321Z,5.72
2023-03-04T06:10:17.492Z,5.73
2023-03-04T06:12:43.982Z,5.69
2023-03-04T06:15:11.214Z,5.73
2023-03-04T06:17:41.804Z,5.74
2023-03-04T06:20:10.880Z,5.76
2023-03-04T06:22:37.394Z,5.76
2023-03-04T06:25:04.715Z,5.76
2023-03-04T06:27:31.270Z,5.75
2023-03-04T06:29:58.005Z,5.75
2023-03-04T06:32:24.670Z,5.77
2023-03-04T06:34:51.287Z,5.79
2023-03-04T06:37:17.832Z,5.80
2023-03-04T06:39:45.885Z,5.82
2023-03-04T06:42:12.794Z,5.80
2023-03-04T06:44:39.421Z,5.80
2023-03-04T06:47:06.060Z,5.83
2023-03-04T06:49:32.651Z,5.84
2023-03-04T06:51:59.291Z,5.90
2023-03-04T06:54:25.944Z,5.91
2023-03-04T06:56:52.504Z,5.93
2023-03-04T06:59:19.175Z,5.96
2023-03-04T07:01:45.728Z,5.94
2023-03-04T07:04:13.850Z,5.99
2023-03-04T07:06:42.719Z,6.02
2023-03-04T07:09:10.269Z,6.06
2023-03-04T07:11:37.002Z,6.01
2023-03-04T07:14:03.525Z,6.07
2023-03-04T07:16:30.684Z,6.07
2023-03-04T07:18:57.347Z,6.10
2023-03-04T07:21:23.920Z,6.15
2023-03-04T07:23:50.785Z,6.14
2023-03-04T07:26:17.981Z,6.16
2023-03-04T07:28:44.644Z,6.24
2023-03-04T07:31:22.568Z,6.26
2023-03-04T07:33:49.770Z,6.31
2023-03-04T07:36:16.468Z,6.34
2023-03-04T07:38:45.018Z,6.35
2023-03-04T07:41:11.592Z,6.41
2023-03-04T07:43:38.395Z,6.37
2023-03-04T07:46:05.171Z,6.44
2023-03-04T07:48:31.707Z,6.51
2023-03-04T07:51:08.852Z,6.56
2023-03-04T07:53:37.266Z,6.57
2023-03-04T07:56:04.819Z,6.60
2023-03-04T07:58:31.692Z,6.65
2023-03-04T08:00:58.263Z,6.63
2023-03-04T08:03:24.930Z,6.66
2023-03-04T08:05:52.015Z,6.73
2023-03-04T08:08:18.623Z,6.82
2023-03-04T08:10:45.377Z,6.78
2023-03-04T08:13:11.980Z,6.84
2023-03-04T08:15:43.145Z,6.85
2023-03-04T08:18:09.976Z,6.88
2023-03-04T08:20:36.606Z,6.92
2023-03-04T08:23:03.167Z,6.99
2023-03-04T08:25:29.734Z,6.98
2023-03-04T08:27:56.389Z,6.98
2023-03-04T08:30:23.029Z,7.06
2023-03-04T08:32:49.634Z,7.11
2023-03-04T08:35:16.261Z,7.13
2023-03-04T08:37:46.408Z,7.16
2023-03-04T08:40:14.346Z,7.08
2023-03-04T08:42:41.856Z,7.09
2023-03-04T08:45:09.700Z,7.06
2023-03-04T08:47:36.460Z,6.99
2023-03-04T08:50:03.912Z,7.00
2023-03-04T08:52:30.976Z,7.03
2023-03-04T08:54:57.643Z,7.05
2023-03-04T08:57:24.195Z,7.07
2023-03-04T08:59:50.756Z,7.10
2023-03-04T09:02:17.473Z,7.10
2023-03-04T09:04:44.039Z,7.09
2023-03-04T09:07:11.270Z,7.09
2023-03-04T09:09:37.895Z,7.08
2023-03-04T09:12:04.567Z,7.10
2023-03-04T09:14:32.720Z,7.12
2023-03-04T09:16:59.363Z,7.22
2023-03-04T09:19:27.837Z,7.31
2023-03-04T09:21:56.046Z,7.33
2023-03-04T09:24:22.672Z,7.38
2023-03-04T09:26:54.312Z,7.46
2023-03-04T09:29:21.164Z,7.49
2023-03-04T09:31:47.819Z,7.60
2023-03-04T09:34:14.600Z,7.57
2023-03-04T09:36:41.191Z,7.67
2023-03-04T09:39:07.947Z,7.75
2023-03-04T09:41:39.542Z,7.80
2023-03-04T09:44:37.322Z,7.80
2023-03-04T09:47:07.871Z,7.81
2023-03-04T09:49:34.624Z,7.78
2023-03-04T09:52:20.802Z,7.80
2023-03-04T09:55:12.307Z,7.87
2023-03-04T09:57:50.987Z,7.90
2023-03-04T10:00:20.272Z,7.79
2023-03-04T10:03:09.989Z,7.67
2023-03-04T10:05:49.716Z,7.74
2023-03-04T10:08:41.220Z,7.75
2023-03-04T10:11:27.855Z,7.83
2023-03-04T10:14:12.520Z,7.89
2023-03-04T10:16:44.159Z,8.02
2023-03-04T10:19:13.726Z,8.06
2023-03-04T10:21:43.262Z,8.03
2023-03-04T10:24:17.999Z,7.92
2023-03-04T10:26:46.617Z,7.76
2023-03-04T10:29:18.467Z,7.90
2023-03-04T10:31:46.425Z,7.83
2023-03-04T10:34:14.156Z,7.56
2023-03-04T10:37:01.931Z,7.48
2023-03-04T10:39:33.637Z,7.26
2023-03-04T10:42:00.241Z,7.26
2023-03-04T10:44:27.999Z,7.23
2023-03-04T10:46:56.475Z,6.99
2023-03-04T10:49:25.141Z,7.04
2023-03-04T10:52:06.343Z,7.07
2023-03-04T10:54:50.435Z,7.09
2023-03-04T10:57:23.634Z,7.08
2023-03-04T10:59:55.676Z,7.22
2023-03-04T11:02:33.662Z,7.33
2023-03-04T11:05:13.820Z,7.46
2023-03-04T11:07:57.113Z,7.51
2023-03-04T11:10:23.999Z,7.59
2023-03-04T11:13:07.370Z,7.65
2023-03-04T11:15:49.476Z,7.61
2023-03-04T11:18:16.255Z,7.69
2023-03-04T11:20:49.416Z,7.80
2023-03-04T11:23:25.472Z,7.86
2023-03-04T11:26:10.575Z,7.95
2023-03-04T11:28:48.642Z,7.94
2023-03-04T11:31:22.876Z,7.93
2023-03-04T11:33:52.356Z,7.97
2023-03-04T11:36:43.854Z,8.00
2023-03-04T11:39:27.061Z,7.89
2023-03-04T11:41:59.398Z,7.90
2023-03-04T11:44:26.139Z,7.87
2023-03-04T11:47:05.444Z,7.80
2023-03-04T11:49:48.853Z,7.81
2023-03-04T11:52:18.636Z,7.80
2023-03-04T11:55:05.149Z,7.82
2023-03-04T11:57:49.320Z,7.67
2023-03-04T12:00:30.590Z,7.64
2023-03-04T12:03:12.927Z,7.65
2023-03-04T12:05:55.574Z,7.78
2023-03-04T12:08:38.778Z,7.94
2023-03-04T12:11:14.885Z,8.14
2023-03-04T12:14:04.638Z,8.14
2023-03-04T12:16:34.225Z,8.18
2023-03-04T12:19:17.283Z,8.15
2023-03-04T12:22:06.557Z,8.04
2023-03-04T12:24:49.450Z,7.94
2023-03-04T12:27:37.255Z,7.98
2023-03-04T12:30:28.591Z,8.11
2023-03-04T12:33:19.249Z,8.08
2023-03-04T12:36:07.249Z,8.11
2023-03-04T12:38:50.146Z,8.10
2023-03-04T12:41:28.877Z,8.05
2023-03-04T12:44:09.223Z,7.92
2023-03-04T12:46:59.468Z,7.94
2023-03-04T12:49:49.270Z,7.99
2023-03-04T12:55:44.578Z,8.02
2023-03-04T12:58:16.092Z,7.98
2023-03-04T13:01:07.354Z,7.99
2023-03-04T13:03:39.215Z,7.99
2023-03-04T13:06:19.493Z,7.90
2023-03-04T13:09:04.685Z,7.84
2023-03-04T13:11:42.771Z,7.86
2023-03-04T13:14:17.423Z,7.91
2023-03-04T13:16:48.039Z,7.95
2023-03-04T13:19:42.280Z,7.98
2023-03-04T13:22:53.855Z,7.90
2023-03-04T13:25:32.659Z,7.80
2023-03-04T13:28:11.441Z,7.70
2023-03-04T13:30:41.045Z,7.67
2023-03-04T13:33:10.484Z,7.66
2023-03-04T13:35:49.254Z,7.77
2023-03-04T13:38:37.410Z,7.90
2023-03-04T13:41:23.022Z,7.97
2023-03-04T13:43:52.120Z,8.02
2023-03-04T13:46:18.765Z,8.05
2023-03-04T13:48:51.576Z,8.10
2023-03-04T13:51:29.964Z,8.16
2023-03-04T13:53:59.731Z,8.15
2023-03-04T13:56:37.905Z,8.21
2023-03-04T13:59:43.439Z,8.25
2023-03-04T14:02:22.276Z,8.12
2023-03-04T14:04:54.965Z,7.99
2023-03-04T14:07:26.577Z,7.99
2023-03-04T14:09:57.276Z,7.90
2023-03-04T14:12:24.427Z,7.80
2023-03-04T14:14:54.491Z,7.62
2023-03-04T14:17:27.419Z,7.63
2023-03-04T14:19:54.813Z,7.59
2023-03-04T14:22:40.897Z,7.56
2023-03-04T14:25:16.291Z,7.60
2023-03-04T14:27:44.456Z,7.59
2023-03-04T14:30:40.696Z,7.52
2023-03-04T14:33:21.685Z,7.49
2023-03-04T14:35:52.329Z,7.36
2023-03-04T14:38:28.220Z,7.53
2023-03-04T14:41:07.910Z,7.60
2023-03-04T14:43:57.189Z,7.63
2023-03-04T14:46:25.073Z,7.68
2023-03-04T14:48:53.516Z,7.66
2023-03-04T14:51:39.145Z,7.57
2023-03-04T14:54:06.824Z,7.65
2023-03-04T14:56:37.191Z,7.66
2023-03-04T14:59:03.976Z,7.67
2023-03-04T15:01:35.944Z,7.65
2023-03-04T15:04:08.332Z,7.66
2023-03-04T15:06:47.763Z,7.70
2023-03-04T15:09:22.009Z,7.64
2023-03-04T15:11:53.793Z,7.63
2023-03-04T15:14:42.679Z,7.60
2023-03-04T15:17:26.057Z,7.58
2023-03-04T15:20:07.887Z,7.56
2023-03-04T15:22:57.710Z,7.53
2023-03-04T15:25:24.432Z,7.54
2023-03-04T15:27:51.469Z,7.50
2023-03-04T15:30:25.963Z,7.51
2023-03-04T15:32:52.452Z,7.39
2023-03-04T15:35:19.754Z,7.38
2023-03-04T15:37:47.519Z,7.42
2023-03-04T15:40:23.659Z,7.46
2023-03-04T15:42:50.458Z,7.43
2023-03-04T15:45:26.773Z,7.40
2023-03-04T15:47:53.458Z,7.39
2023-03-04T15:50:21.798Z,7.36
2023-03-04T15:52:50.879Z,7.30
2023-03-04T15:55:20.045Z,7.28
2023-03-04T15:57:48.965Z,7.23
2023-03-04T16:00:16.117Z,7.20
2023-03-04T16:02:43.008Z,7.23
2023-03-04T16:05:10.891Z,7.22
2023-03-04T16:07:38.843Z,7.19
2023-03-04T16:10:08.688Z,7.19
2023-03-04T16:12:35.394Z,7.19
2023-03-04T16:15:02.186Z,7.11
2023-03-04T16:17:28.853Z,7.10
2023-03-04T16:19:55.508Z,7.08
2023-03-04T16:22:24.356Z,7.12
2023-03-04T16:24:51.640Z,7.04
2023-03-04T16:27:19.195Z,7.05
2023-03-04T16:29:46.030Z,7.04
2023-03-04T16:32:12.970Z,6.98
2023-03-04T16:34:39.582Z,7.02
2023-03-04T16:37:12.318Z,7.08
2023-03-04T16:39:38.998Z,6.98
2023-03-04T16:42:13.205Z,7.00
2023-03-04T16:44:39.939Z,6.96
2023-03-04T16:47:08.033Z,6.97
2023-03-04T16:49:34.855Z,6.94
2023-03-04T16:52:01.453Z,6.94
2023-03-04T16:54:31.277Z,6.90
2023-03-04T16:56:59.266Z,6.86
2023-03-04T16:59:26.294Z,6.86
2023-03-04T17:01:53.778Z,6.78
2023-03-04T17:04:20.722Z,6.79
2023-03-04T17:06:47.502Z,6.73
2023-03-04T17:09:14.391Z,6.68
2023-03-04T17:11:41.268Z,6.61
2023-03-04T17:14:07.791Z,6.63
2023-03-04T17:16:34.460Z,6.61
2023-03-04T17:19:01.101Z,6.57
2023-03-04T17:21:28.936Z,6.55
2023-03-04T17:23:55.459Z,6.54
2023-03-04T17:26:22.836Z,6.53
2023-03-04T17:28:50.652Z,6.53
2023-03-04T17:31:19.065Z,6.50
2023-03-04T17:33:46.237Z,6.44
2023-03-04T17:36:14.618Z,6.45
2023-03-04T17:38:41.758Z,6.46
2023-03-04T17:41:13.454Z,6.48
2023-03-04T17:43:40.219Z,6.49
2023-03-04T17:46:08.895Z,6.54
2023-03-04T17:48:35.497Z,6.57
2023-03-04T17:51:02.779Z,6.55
2023-03-04T17:53:29.669Z,6.53
2023-03-04T17:56:00.144Z,6.51
2023-03-04T17:58:28.095Z,6.50
2023-03-04T18:01:04.776Z,6.52
2023-03-04T18:03:31.384Z,6.51
2023-03-04T18:05:58.582Z,6.49
2023-03-04T18:08:25.534Z,6.41
2023-03-04T18:10:52.596Z,6.47
2023-03-04T18:13:19.279Z,6.42
2023-03-04T18:15:47.977Z,6.40
2023-03-04T18:19:06.258Z,6.41
2023-03-04T18:21:42.976Z,6.39
2023-03-04T18:28:20.835Z,6.29
2023-03-04T18:35:07.320Z,6.16
2023-03-04T18:37:56.930Z,6.09
2023-03-04T18:44:10.658Z,6.10
2023-03-04T18:46:48.227Z,6.09
2023-03-04T18:49:15.188Z,6.12
2023-03-04T18:51:42.022Z,6.14
2023-03-04T18:54:08.461Z,6.16
2023-03-04T18:56:38.986Z,6.15
2023-03-04T18:59:08.253Z,6.14
2023-03-04T19:01:34.796Z,6.14
2023-03-04T19:04:04.422Z,6.13
2023-03-04T19:06:34.491Z,6.15
2023-03-04T19:09:01.298Z,6.14
2023-03-04T19:11:29.814Z,6.07
2023-03-04T19:13:56.258Z,6.07
2023-03-04T19:16:22.906Z,6.07
2023-03-04T19:18:49.384Z,6.07
2023-03-04T19:21:15.833Z,6.06
2023-03-04T19:23:42.379Z,6.05
2023-03-04T19:26:09.130Z,6.05
2023-03-04T19:28:35.702Z,6.04
2023-03-04T19:31:07.052Z,6.02
2023-03-04T19:33:37.229Z,6.01
2023-03-04T19:36:05.645Z,6.00
2023-03-04T19:38:33.497Z,6.02
2023-03-04T19:41:00.130Z,6.04
2023-03-04T19:43:26.549Z,5.99
2023-03-04T19:45:55.057Z,5.99
2023-03-04T19:48:22.676Z,5.98
2023-03-04T19:50:50.008Z,5.97
2023-03-04T19:53:18.631Z,5.93
2023-03-04T19:55:49.252Z,5.91
2023-03-04T19:58:16.466Z,5.88
2023-03-04T20:00:42.976Z,5.81
2023-03-04T20:03:09.511Z,5.77
2023-03-04T20:05:36.089Z,5.71
2023-03-04T20:08:02.686Z,5.68
2023-03-04T20:10:33.502Z,5.69
2023-03-04T20:12:59.974Z,5.65
2023-03-04T20:15:26.436Z,5.67
2023-03-04T20:17:52.886Z,5.67
2023-03-04T20:20:19.372Z,5.69
2023-03-04T20:22:45.885Z,5.70
2023-03-04T20:25:13.811Z,5.61
2023-03-04T20:27:40.255Z,5.63
2023-03-04T20:30:07.248Z,5.63
2023-03-04T20:32:33.735Z,5.61
2023-03-04T20:35:00.185Z,5.57
2023-03-04T20:37:26.609Z,5.55
2023-03-04T20:39:53.104Z,5.59
2023-03-04T20:42:19.560Z,5.59
2023-03-04T20:44:46.030Z,5.58
2023-03-04T20:47:12.465Z,5.56
2023-03-04T20:49:38.892Z,5.49
2023-03-04T20:52:09.595Z,5.49
2023-03-04T20:54:37.396Z,5.50
2023-03-04T20:57:06.801Z,5.49
2023-03-04T20:59:37.966Z,5.47
2023-03-04T21:02:05.980Z,5.38
2023-03-04T21:04:34.311Z,5.34
2023-03-04T21:07:01.665Z,5.33
2023-03-04T21:09:28.143Z,5.29
2023-03-04T21:11:54.847Z,5.28
2023-03-04T21:14:24.274Z,5.28
2023-03-04T21:16:53.352Z,5.25
2023-03-04T21:19:22.642Z,5.22
2023-03-04T21:21:50.867Z,5.27
2023-03-04T21:24:19.871Z,5.29
2023-03-04T21:26:47.651Z,5.30
2023-03-04T21:29:16.216Z,5.22
2023-03-04T21:31:45.333Z,5.18
2023-03-04T21:34:18.249Z,5.16
2023-03-04T21:36:44.870Z,5.12
2023-03-04T21:39:16.668Z,5.15
2023-03-04T21:41:43.392Z,5.14
2023-03-04T21:44:17.977Z,5.11
2023-03-04T21:46:59.083Z,5.11
2023-03-04T21:49:26.248Z,5.06
2023-03-04T21:51:52.672Z,5.08
2023-03-04T21:54:19.144Z,5.06
2023-03-04T21:56:45.630Z,5.06
2023-03-04T21:59:13.717Z,5.00
2023-03-04T22:01:40.828Z,5.01
2023-03-04T22:04:07.364Z,4.99
2023-03-04T22:06:34.398Z,4.98
2023-03-04T22:09:02.133Z,4.94
2023-03-04T22:11:29.974Z,4.93
2023-03-04T22:13:58.209Z,4.91
2023-03-04T22:16:25.255Z,4.86
2023-03-04T22:18:51.761Z,4.84
2023-03-04T22:21:19.500Z,4.84
2023-03-04T22:23:46.121Z,4.81
2023-03-04T22:26:18.502Z,4.79
2023-03-04T22:28:44.948Z,4.76
2023-03-04T22:31:30.070Z,4.72
2023-03-04T22:34:01.474Z,4.70
2023-03-04T22:36:32.699Z,4.68
2023-03-04T22:38:59.140Z,4.66
2023-03-04T22:41:25.770Z,4.64
2023-03-04T22:43:52.402Z,4.57
2023-03-04T22:46:24.654Z,4.57
2023-03-04T22:48:52.794Z,4.50
2023-03-04T22:51:20.670Z,4.47
2023-03-04T22:53:48.349Z,4.44
2023-03-04T22:56:15.569Z,4.46
2023-03-04T22:58:42.918Z,4.43
2023-03-04T23:01:10.207Z,4.40
2023-03-04T23:03:37.035Z,4.40
2023-03-04T23:06:14.094Z,4.39
2023-03-04T23:08:41.900Z,4.35
2023-03-04T23:11:10.284Z,4.33
2023-03-04T23:13:37.741Z,4.34
2023-03-04T23:16:07.898Z,4.31
2023-03-04T23:18:35.037Z,4.28
2023-03-04T23:21:25.718Z,4.32
2023-03-04T23:23:52.370Z,4.32
2023-03-04T23:26:27.275Z,4.35
2023-03-04T23:28:56.785Z,4.36
2023-03-04T23:31:23.552Z,4.31
2023-03-04T23:33:50.130Z,4.36
2023-03-04T23:36:18.265Z,4.37
2023-03-04T23:38:46.676Z,4.37
2023-03-04T23:41:15.578Z,4.41
2023-03-04T23:43:42.041Z,4.42
2023-03-04T23:46:09.317Z,4.45
2023-03-04T23:48:35.824Z,4.43
2023-03-04T23:51:02.234Z,4.44
2023-03-04T23:53:28.718Z,4.45
2023-03-04T23:55:55.124Z,4.45
2023-03-04T23:58:21.536Z,4.46
